sensor_id;sensor_type;location;lat;lon;timestamp;temperature;humidity
19214;DHT22;9741;51.020;5.304;2024-02-26T00:00:22;7.90;59.20
19214;DHT22;9741;51.020;5.304;2024-02-26T00:02:49;7.90;59.30
19214;DHT22;9741;51.020;5.304;2024-02-26T00:05:17;7.80;59.40
19214;DHT22;9741;51.020;5.304;2024-02-26T00:07:44;7.80;59.40
19214;DHT22;9741;51.020;5.304;2024-02-26T00:10:13;7.80;59.60
19214;DHT22;9741;51.020;5.304;2024-02-26T00:12:40;7.90;59.80
19214;DHT22;9741;51.020;5.304;2024-02-26T00:15:08;7.80;59.80
19214;DHT22;9741;51.020;5.304;2024-02-26T00:17:35;7.80;60.00
19214;DHT22;9741;51.020;5.304;2024-02-26T00:20:02;7.80;60.00
19214;DHT22;9741;51.020;5.304;2024-02-26T00:22:31;7.80;60.20
19214;DHT22;9741;51.020;5.304;2024-02-26T00:24:58;7.80;60.20
19214;DHT22;9741;51.020;5.304;2024-02-26T00:27:25;7.80;60.40
19214;DHT22;9741;51.020;5.304;2024-02-26T00:29:52;7.80;60.50
19214;DHT22;9741;51.020;5.304;2024-02-26T00:32:19;7.70;60.60
19214;DHT22;9741;51.020;5.304;2024-02-26T00:34:46;7.70;60.70
19214;DHT22;9741;51.020;5.304;2024-02-26T00:37:13;7.70;60.90
19214;DHT22;9741;51.020;5.304;2024-02-26T00:39:41;7.70;61.20
19214;DHT22;9741;51.020;5.304;2024-02-26T00:42:09;7.70;61.30
19214;DHT22;9741;51.020;5.304;2024-02-26T00:44:36;7.70;62.10
19214;DHT22;9741;51.020;5.304;2024-02-26T00:47:03;7.70;61.70
19214;DHT22;9741;51.020;5.304;2024-02-26T00:49:30;7.70;61.90
19214;DHT22;9741;51.020;5.304;2024-02-26T00:51:57;7.60;61.90
19214;DHT22;9741;51.020;5.304;2024-02-26T00:54:23;7.60;62.20
19214;DHT22;9741;51.020;5.304;2024-02-26T00:56:52;7.60;62.30
19214;DHT22;9741;51.020;5.304;2024-02-26T00:59:19;7.60;62.50
19214;DHT22;9741;51.020;5.304;2024-02-26T01:01:45;7.60;62.70
19214;DHT22;9741;51.020;5.304;2024-02-26T01:04:12;7.50;62.80
19214;DHT22;9741;51.020;5.304;2024-02-26T01:06:39;7.50;63.00
19214;DHT22;9741;51.020;5.304;2024-02-26T01:09:06;7.50;63.20
19214;DHT22;9741;51.020;5.304;2024-02-26T01:11:33;7.50;63.40
19214;DHT22;9741;51.020;5.304;2024-02-26T01:14:02;7.50;63.70
19214;DHT22;9741;51.020;5.304;2024-02-26T01:16:29;7.40;63.90
19214;DHT22;9741;51.020;5.304;2024-02-26T01:18:57;7.40;64.00
19214;DHT22;9741;51.020;5.304;2024-02-26T01:21:24;7.40;64.20
19214;DHT22;9741;51.020;5.304;2024-02-26T01:23:52;7.40;64.50
19214;DHT22;9741;51.020;5.304;2024-02-26T01:26:19;7.40;64.70
19214;DHT22;9741;51.020;5.304;2024-02-26T01:28:47;7.40;65.00
19214;DHT22;9741;51.020;5.304;2024-02-26T01:31:16;7.40;65.20
19214;DHT22;9741;51.020;5.304;2024-02-26T01:33:42;7.40;65.30
19214;DHT22;9741;51.020;5.304;2024-02-26T01:36:09;7.40;65.50
19214;DHT22;9741;51.020;5.304;2024-02-26T01:38:36;7.30;65.60
19214;DHT22;9741;51.020;5.304;2024-02-26T01:41:03;7.30;65.80
19214;DHT22;9741;51.020;5.304;2024-02-26T01:43:30;7.30;66.00
19214;DHT22;9741;51.020;5.304;2024-02-26T01:45:57;7.30;66.20
19214;DHT22;9741;51.020;5.304;2024-02-26T01:48:26;7.30;66.40
19214;DHT22;9741;51.020;5.304;2024-02-26T01:50:53;7.40;66.60
19214;DHT22;9741;51.020;5.304;2024-02-26T01:53:20;7.40;66.70
19214;DHT22;9741;51.020;5.304;2024-02-26T01:55:47;7.30;66.80
19214;DHT22;9741;51.020;5.304;2024-02-26T01:58:14;7.30;67.00
19214;DHT22;9741;51.020;5.304;2024-02-26T02:00:42;7.30;67.20
19214;DHT22;9741;51.020;5.304;2024-02-26T02:03:09;7.30;67.40
19214;DHT22;9741;51.020;5.304;2024-02-26T02:05:37;7.30;67.60
19214;DHT22;9741;51.020;5.304;2024-02-26T02:08:07;7.30;67.80
19214;DHT22;9741;51.020;5.304;2024-02-26T02:10:34;7.30;67.90
19214;DHT22;9741;51.020;5.304;2024-02-26T02:13:02;7.30;68.10
19214;DHT22;9741;51.020;5.304;2024-02-26T02:15:29;7.20;68.20
19214;DHT22;9741;51.020;5.304;2024-02-26T02:17:56;7.30;68.40
19214;DHT22;9741;51.020;5.304;2024-02-26T02:20:26;7.20;68.50
19214;DHT22;9741;51.020;5.304;2024-02-26T02:22:58;7.20;69.20
19214;DHT22;9741;51.020;5.304;2024-02-26T02:25:24;7.20;68.90
19214;DHT22;9741;51.020;5.304;2024-02-26T02:27:52;7.20;69.00
19214;DHT22;9741;51.020;5.304;2024-02-26T02:30:21;7.20;69.20
19214;DHT22;9741;51.020;5.304;2024-02-26T02:32:48;7.20;69.30
19214;DHT22;9741;51.020;5.304;2024-02-26T02:35:15;7.20;69.40
19214;DHT22;9741;51.020;5.304;2024-02-26T02:37:43;7.20;69.50
19214;DHT22;9741;51.020;5.304;2024-02-26T02:40:10;7.30;69.80
19214;DHT22;9741;51.020;5.304;2024-02-26T02:42:37;7.20;69.80
19214;DHT22;9741;51.020;5.304;2024-02-26T02:45:05;7.20;69.90
19214;DHT22;9741;51.020;5.304;2024-02-26T02:47:36;7.20;70.00
19214;DHT22;9741;51.020;5.304;2024-02-26T02:50:03;7.20;70.10
19214;DHT22;9741;51.020;5.304;2024-02-26T02:52:30;7.20;70.30
19214;DHT22;9741;51.020;5.304;2024-02-26T02:54:59;7.20;70.90
19214;DHT22;9741;51.020;5.304;2024-02-26T02:57:26;7.20;70.60
19214;DHT22;9741;51.020;5.304;2024-02-26T02:59:53;7.20;70.70
19214;DHT22;9741;51.020;5.304;2024-02-26T03:02:20;7.20;70.90
19214;DHT22;9741;51.020;5.304;2024-02-26T03:04:47;7.20;71.00
19214;DHT22;9741;51.020;5.304;2024-02-26T03:07:13;7.20;71.10
19214;DHT22;9741;51.020;5.304;2024-02-26T03:09:40;7.20;71.20
19214;DHT22;9741;51.020;5.304;2024-02-26T03:12:09;7.20;71.30
19214;DHT22;9741;51.020;5.304;2024-02-26T03:14:36;7.20;71.40
19214;DHT22;9741;51.020;5.304;2024-02-26T03:17:03;7.20;71.50
19214;DHT22;9741;51.020;5.304;2024-02-26T03:19:30;7.10;71.50
19214;DHT22;9741;51.020;5.304;2024-02-26T03:21:57;7.10;71.70
19214;DHT22;9741;51.020;5.304;2024-02-26T03:24:24;7.10;71.80
19214;DHT22;9741;51.020;5.304;2024-02-26T03:26:50;7.10;71.80
19214;DHT22;9741;51.020;5.304;2024-02-26T03:29:19;7.00;71.90
19214;DHT22;9741;51.020;5.304;2024-02-26T03:31:46;7.00;72.10
19214;DHT22;9741;51.020;5.304;2024-02-26T03:34:13;7.00;72.30
19214;DHT22;9741;51.020;5.304;2024-02-26T03:36:40;7.00;72.30
19214;DHT22;9741;51.020;5.304;2024-02-26T03:39:07;7.00;72.30
19214;DHT22;9741;51.020;5.304;2024-02-26T03:41:34;7.00;72.50
19214;DHT22;9741;51.020;5.304;2024-02-26T03:44:02;7.00;72.60
19214;DHT22;9741;51.020;5.304;2024-02-26T03:46:30;7.00;72.80
19214;DHT22;9741;51.020;5.304;2024-02-26T03:48:57;7.00;72.90
19214;DHT22;9741;51.020;5.304;2024-02-26T03:51:24;7.00;73.00
19214;DHT22;9741;51.020;5.304;2024-02-26T03:53:51;7.00;73.10
19214;DHT22;9741;51.020;5.304;2024-02-26T03:56:18;7.00;73.20
19214;DHT22;9741;51.020;5.304;2024-02-26T03:58:46;7.00;73.30
19214;DHT22;9741;51.020;5.304;2024-02-26T04:01:13;7.00;73.50
19214;DHT22;9741;51.020;5.304;2024-02-26T04:03:41;7.00;73.60
19214;DHT22;9741;51.020;5.304;2024-02-26T04:06:09;7.00;73.60
19214;DHT22;9741;51.020;5.304;2024-02-26T04:08:37;7.00;73.70
19214;DHT22;9741;51.020;5.304;2024-02-26T04:11:04;7.00;73.70
19214;DHT22;9741;51.020;5.304;2024-02-26T04:13:33;7.00;73.90
19214;DHT22;9741;51.020;5.304;2024-02-26T04:16:00;7.00;73.90
19214;DHT22;9741;51.020;5.304;2024-02-26T04:18:28;7.00;74.00
19214;DHT22;9741;51.020;5.304;2024-02-26T04:20:56;7.00;74.10
19214;DHT22;9741;51.020;5.304;2024-02-26T04:23:23;7.00;74.20
19214;DHT22;9741;51.020;5.304;2024-02-26T04:25:50;7.00;74.20
19214;DHT22;9741;51.020;5.304;2024-02-26T04:28:19;7.00;74.30
19214;DHT22;9741;51.020;5.304;2024-02-26T04:30:47;7.00;74.40
19214;DHT22;9741;51.020;5.304;2024-02-26T04:33:14;7.00;74.50
19214;DHT22;9741;51.020;5.304;2024-02-26T04:35:41;7.00;74.50
19214;DHT22;9741;51.020;5.304;2024-02-26T04:38:09;7.00;74.50
19214;DHT22;9741;51.020;5.304;2024-02-26T04:40:36;7.00;74.60
19214;DHT22;9741;51.020;5.304;2024-02-26T04:43:03;6.90;74.60
19214;DHT22;9741;51.020;5.304;2024-02-26T04:45:30;7.00;74.80
19214;DHT22;9741;51.020;5.304;2024-02-26T04:47:57;7.00;74.80
19214;DHT22;9741;51.020;5.304;2024-02-26T04:50:24;7.00;75.00
19214;DHT22;9741;51.020;5.304;2024-02-26T04:52:51;7.00;75.00
19214;DHT22;9741;51.020;5.304;2024-02-26T04:55:19;7.00;75.10
19214;DHT22;9741;51.020;5.304;2024-02-26T04:57:46;7.00;75.20
19214;DHT22;9741;51.020;5.304;2024-02-26T05:00:14;7.00;75.20
19214;DHT22;9741;51.020;5.304;2024-02-26T05:02:41;7.00;75.20
19214;DHT22;9741;51.020;5.304;2024-02-26T05:05:08;7.00;75.30
19214;DHT22;9741;51.020;5.304;2024-02-26T05:07:39;7.00;75.40
19214;DHT22;9741;51.020;5.304;2024-02-26T05:10:07;7.00;75.40
19214;DHT22;9741;51.020;5.304;2024-02-26T05:12:35;7.00;75.40
19214;DHT22;9741;51.020;5.304;2024-02-26T05:15:03;7.00;76.00
19214;DHT22;9741;51.020;5.304;2024-02-26T05:17:29;7.00;75.60
19214;DHT22;9741;51.020;5.304;2024-02-26T05:19:56;7.00;75.60
19214;DHT22;9741;51.020;5.304;2024-02-26T05:22:23;7.00;75.60
19214;DHT22;9741;51.020;5.304;2024-02-26T05:24:50;7.00;75.70
19214;DHT22;9741;51.020;5.304;2024-02-26T05:27:18;7.00;75.70
19214;DHT22;9741;51.020;5.304;2024-02-26T05:29:46;7.10;75.80
19214;DHT22;9741;51.020;5.304;2024-02-26T05:32:13;7.10;75.80
19214;DHT22;9741;51.020;5.304;2024-02-26T05:34:40;7.10;75.90
19214;DHT22;9741;51.020;5.304;2024-02-26T05:37:07;7.10;75.90
19214;DHT22;9741;51.020;5.304;2024-02-26T05:39:34;7.10;75.80
19214;DHT22;9741;51.020;5.304;2024-02-26T05:42:04;7.00;75.80
19214;DHT22;9741;51.020;5.304;2024-02-26T05:44:31;7.10;75.90
19214;DHT22;9741;51.020;5.304;2024-02-26T05:46:59;7.00;75.80
19214;DHT22;9741;51.020;5.304;2024-02-26T05:49:26;7.10;75.90
19214;DHT22;9741;51.020;5.304;2024-02-26T05:51:53;7.00;75.80
19214;DHT22;9741;51.020;5.304;2024-02-26T05:54:20;7.00;75.90
19214;DHT22;9741;51.020;5.304;2024-02-26T05:56:47;7.00;75.90
19214;DHT22;9741;51.020;5.304;2024-02-26T05:59:14;7.00;75.90
19214;DHT22;9741;51.020;5.304;2024-02-26T06:01:41;7.00;76.00
19214;DHT22;9741;51.020;5.304;2024-02-26T06:04:09;7.00;76.00
19214;DHT22;9741;51.020;5.304;2024-02-26T06:06:37;7.00;76.00
19214;DHT22;9741;51.020;5.304;2024-02-26T06:09:04;7.00;76.10
19214;DHT22;9741;51.020;5.304;2024-02-26T06:11:31;7.00;76.10
19214;DHT22;9741;51.020;5.304;2024-02-26T06:13:58;6.90;76.10
19214;DHT22;9741;51.020;5.304;2024-02-26T06:16:25;6.90;76.20
19214;DHT22;9741;51.020;5.304;2024-02-26T06:18:53;6.90;76.20
19214;DHT22;9741;51.020;5.304;2024-02-26T06:21:21;6.90;76.20
19214;DHT22;9741;51.020;5.304;2024-02-26T06:23:48;6.90;76.30
19214;DHT22;9741;51.020;5.304;2024-02-26T06:26:16;6.90;76.40
19214;DHT22;9741;51.020;5.304;2024-02-26T06:28:43;6.90;76.40
19214;DHT22;9741;51.020;5.304;2024-02-26T06:31:10;6.90;76.40
19214;DHT22;9741;51.020;5.304;2024-02-26T06:33:37;6.90;76.40
19214;DHT22;9741;51.020;5.304;2024-02-26T06:36:04;6.90;76.50
19214;DHT22;9741;51.020;5.304;2024-02-26T06:38:33;6.90;76.50
19214;DHT22;9741;51.020;5.304;2024-02-26T06:41:00;6.90;76.60
19214;DHT22;9741;51.020;5.304;2024-02-26T06:43:28;6.90;76.60
19214;DHT22;9741;51.020;5.304;2024-02-26T06:45:55;6.90;76.60
19214;DHT22;9741;51.020;5.304;2024-02-26T06:48:24;6.90;76.70
19214;DHT22;9741;51.020;5.304;2024-02-26T06:50:51;6.90;76.70
19214;DHT22;9741;51.020;5.304;2024-02-26T06:53:18;6.90;76.70
19214;DHT22;9741;51.020;5.304;2024-02-26T06:55:46;6.90;76.70
19214;DHT22;9741;51.020;5.304;2024-02-26T06:58:15;6.90;76.70
19214;DHT22;9741;51.020;5.304;2024-02-26T07:00:42;6.90;76.70
19214;DHT22;9741;51.020;5.304;2024-02-26T07:03:09;6.90;76.90
19214;DHT22;9741;51.020;5.304;2024-02-26T07:05:36;6.90;76.90
19214;DHT22;9741;51.020;5.304;2024-02-26T07:08:03;6.90;76.90
19214;DHT22;9741;51.020;5.304;2024-02-26T07:10:30;6.90;76.90
19214;DHT22;9741;51.020;5.304;2024-02-26T07:12:58;6.90;76.90
19214;DHT22;9741;51.020;5.304;2024-02-26T07:15:25;6.90;77.00
19214;DHT22;9741;51.020;5.304;2024-02-26T07:17:52;6.90;76.90
19214;DHT22;9741;51.020;5.304;2024-02-26T07:20:19;6.90;76.90
19214;DHT22;9741;51.020;5.304;2024-02-26T07:22:46;6.90;77.00
19214;DHT22;9741;51.020;5.304;2024-02-26T07:25:13;6.90;77.00
19214;DHT22;9741;51.020;5.304;2024-02-26T07:27:41;6.90;77.00
19214;DHT22;9741;51.020;5.304;2024-02-26T07:30:11;7.00;77.20
19214;DHT22;9741;51.020;5.304;2024-02-26T07:32:38;7.00;77.10
19214;DHT22;9741;51.020;5.304;2024-02-26T07:35:05;7.00;77.10
19214;DHT22;9741;51.020;5.304;2024-02-26T07:37:32;7.00;77.10
19214;DHT22;9741;51.020;5.304;2024-02-26T07:39:59;7.00;77.20
19214;DHT22;9741;51.020;5.304;2024-02-26T07:42:26;7.00;77.20
19214;DHT22;9741;51.020;5.304;2024-02-26T07:44:53;7.00;77.20
19214;DHT22;9741;51.020;5.304;2024-02-26T07:47:23;7.00;77.10
19214;DHT22;9741;51.020;5.304;2024-02-26T07:49:50;7.00;77.20
19214;DHT22;9741;51.020;5.304;2024-02-26T07:52:17;7.00;77.20
19214;DHT22;9741;51.020;5.304;2024-02-26T07:54:44;7.00;77.20
19214;DHT22;9741;51.020;5.304;2024-02-26T07:57:11;7.00;77.20
19214;DHT22;9741;51.020;5.304;2024-02-26T07:59:41;7.00;77.30
19214;DHT22;9741;51.020;5.304;2024-02-26T08:02:09;7.00;77.30
19214;DHT22;9741;51.020;5.304;2024-02-26T08:04:37;7.00;77.30
19214;DHT22;9741;51.020;5.304;2024-02-26T08:07:04;7.00;77.30
19214;DHT22;9741;51.020;5.304;2024-02-26T08:09:31;7.00;77.10
19214;DHT22;9741;51.020;5.304;2024-02-26T08:11:59;7.00;77.30
19214;DHT22;9741;51.020;5.304;2024-02-26T08:14:25;7.00;77.30
19214;DHT22;9741;51.020;5.304;2024-02-26T08:16:52;7.00;77.30
19214;DHT22;9741;51.020;5.304;2024-02-26T08:19:19;7.00;77.40
19214;DHT22;9741;51.020;5.304;2024-02-26T08:21:48;7.00;77.40
19214;DHT22;9741;51.020;5.304;2024-02-26T08:24:15;7.00;77.40
19214;DHT22;9741;51.020;5.304;2024-02-26T08:26:41;7.00;77.30
19214;DHT22;9741;51.020;5.304;2024-02-26T08:29:08;7.00;77.20
19214;DHT22;9741;51.020;5.304;2024-02-26T08:31:35;7.00;77.30
19214;DHT22;9741;51.020;5.304;2024-02-26T08:34:03;7.00;77.90
19214;DHT22;9741;51.020;5.304;2024-02-26T08:36:30;7.00;77.30
19214;DHT22;9741;51.020;5.304;2024-02-26T08:38:59;6.90;77.30
19214;DHT22;9741;51.020;5.304;2024-02-26T08:41:29;7.00;77.40
19214;DHT22;9741;51.020;5.304;2024-02-26T08:43:56;7.00;77.40
19214;DHT22;9741;51.020;5.304;2024-02-26T08:46:24;7.00;77.50
19214;DHT22;9741;51.020;5.304;2024-02-26T08:48:50;7.00;77.50
19214;DHT22;9741;51.020;5.304;2024-02-26T08:51:17;6.90;77.90
19214;DHT22;9741;51.020;5.304;2024-02-26T08:53:44;6.90;77.50
19214;DHT22;9741;51.020;5.304;2024-02-26T08:56:13;6.90;77.50
19214;DHT22;9741;51.020;5.304;2024-02-26T08:58:42;6.90;77.50
19214;DHT22;9741;51.020;5.304;2024-02-26T09:01:10;6.90;77.60
19214;DHT22;9741;51.020;5.304;2024-02-26T09:03:37;6.90;77.60
19214;DHT22;9741;51.020;5.304;2024-02-26T09:06:05;6.90;77.60
19214;DHT22;9741;51.020;5.304;2024-02-26T09:08:32;6.90;77.60
19214;DHT22;9741;51.020;5.304;2024-02-26T09:11:02;7.00;77.70
19214;DHT22;9741;51.020;5.304;2024-02-26T09:13:31;7.00;77.70
19214;DHT22;9741;51.020;5.304;2024-02-26T09:15:57;7.00;77.80
19214;DHT22;9741;51.020;5.304;2024-02-26T09:18:26;7.00;77.90
19214;DHT22;9741;51.020;5.304;2024-02-26T09:20:54;7.00;77.70
19214;DHT22;9741;51.020;5.304;2024-02-26T09:23:21;7.00;77.90
19214;DHT22;9741;51.020;5.304;2024-02-26T09:25:48;7.00;78.00
19214;DHT22;9741;51.020;5.304;2024-02-26T09:28:15;7.10;77.90
19214;DHT22;9741;51.020;5.304;2024-02-26T09:30:44;7.00;77.70
19214;DHT22;9741;51.020;5.304;2024-02-26T09:33:11;7.00;77.70
19214;DHT22;9741;51.020;5.304;2024-02-26T09:35:38;7.00;77.80
19214;DHT22;9741;51.020;5.304;2024-02-26T09:38:05;7.00;77.80
19214;DHT22;9741;51.020;5.304;2024-02-26T09:40:32;7.00;77.80
19214;DHT22;9741;51.020;5.304;2024-02-26T09:43:00;7.00;77.80
19214;DHT22;9741;51.020;5.304;2024-02-26T09:45:28;7.00;78.00
19214;DHT22;9741;51.020;5.304;2024-02-26T09:47:58;7.00;78.00
19214;DHT22;9741;51.020;5.304;2024-02-26T09:50:25;7.00;77.90
19214;DHT22;9741;51.020;5.304;2024-02-26T09:52:54;7.00;77.80
19214;DHT22;9741;51.020;5.304;2024-02-26T09:55:23;7.00;78.00
19214;DHT22;9741;51.020;5.304;2024-02-26T09:57:51;7.00;78.00
19214;DHT22;9741;51.020;5.304;2024-02-26T10:00:20;7.00;78.00
19214;DHT22;9741;51.020;5.304;2024-02-26T10:02:47;7.00;78.00
19214;DHT22;9741;51.020;5.304;2024-02-26T10:05:21;7.00;77.90
19214;DHT22;9741;51.020;5.304;2024-02-26T10:07:48;7.00;78.00
19214;DHT22;9741;51.020;5.304;2024-02-26T10:10:16;7.00;78.10
19214;DHT22;9741;51.020;5.304;2024-02-26T10:12:44;7.00;78.10
19214;DHT22;9741;51.020;5.304;2024-02-26T10:15:11;7.00;77.90
19214;DHT22;9741;51.020;5.304;2024-02-26T10:17:39;7.00;78.20
19214;DHT22;9741;51.020;5.304;2024-02-26T10:20:13;7.00;78.20
19214;DHT22;9741;51.020;5.304;2024-02-26T10:22:42;7.10;78.30
19214;DHT22;9741;51.020;5.304;2024-02-26T10:25:09;7.00;78.20
19214;DHT22;9741;51.020;5.304;2024-02-26T10:27:37;7.10;78.40
19214;DHT22;9741;51.020;5.304;2024-02-26T10:30:05;7.10;78.40
19214;DHT22;9741;51.020;5.304;2024-02-26T10:32:42;7.10;78.40
19214;DHT22;9741;51.020;5.304;2024-02-26T10:35:10;7.10;78.40
19214;DHT22;9741;51.020;5.304;2024-02-26T10:37:37;7.10;78.30
19214;DHT22;9741;51.020;5.304;2024-02-26T10:40:09;7.10;78.40
19214;DHT22;9741;51.020;5.304;2024-02-26T10:42:36;7.10;78.40
19214;DHT22;9741;51.020;5.304;2024-02-26T10:45:04;7.10;78.40
19214;DHT22;9741;51.020;5.304;2024-02-26T10:47:31;7.10;78.20
19214;DHT22;9741;51.020;5.304;2024-02-26T10:49:59;7.10;78.40
19214;DHT22;9741;51.020;5.304;2024-02-26T10:52:26;7.10;78.50
19214;DHT22;9741;51.020;5.304;2024-02-26T10:54:54;7.10;78.40
19214;DHT22;9741;51.020;5.304;2024-02-26T10:57:36;7.10;78.30
19214;DHT22;9741;51.020;5.304;2024-02-26T11:00:28;7.10;78.50
19214;DHT22;9741;51.020;5.304;2024-02-26T11:02:57;7.10;78.90
19214;DHT22;9741;51.020;5.304;2024-02-26T11:05:27;7.10;78.40
19214;DHT22;9741;51.020;5.304;2024-02-26T11:07:54;7.10;78.10
19214;DHT22;9741;51.020;5.304;2024-02-26T11:10:22;7.10;78.20
19214;DHT22;9741;51.020;5.304;2024-02-26T11:12:53;7.10;78.40
19214;DHT22;9741;51.020;5.304;2024-02-26T11:15:21;7.00;78.40
19214;DHT22;9741;51.020;5.304;2024-02-26T11:17:49;7.10;78.60
19214;DHT22;9741;51.020;5.304;2024-02-26T11:20:17;7.00;78.40
19214;DHT22;9741;51.020;5.304;2024-02-26T11:22:46;7.10;78.50
19214;DHT22;9741;51.020;5.304;2024-02-26T11:25:13;7.10;78.60
19214;DHT22;9741;51.020;5.304;2024-02-26T11:27:45;7.00;78.40
19214;DHT22;9741;51.020;5.304;2024-02-26T11:30:15;7.10;78.60
19214;DHT22;9741;51.020;5.304;2024-02-26T11:32:44;7.10;78.50
19214;DHT22;9741;51.020;5.304;2024-02-26T11:35:12;7.10;78.70
19214;DHT22;9741;51.020;5.304;2024-02-26T11:37:51;7.00;78.30
19214;DHT22;9741;51.020;5.304;2024-02-26T11:40:19;7.00;78.40
19214;DHT22;9741;51.020;5.304;2024-02-26T11:42:47;7.00;78.50
19214;DHT22;9741;51.020;5.304;2024-02-26T11:45:48;7.00;78.50
19214;DHT22;9741;51.020;5.304;2024-02-26T11:48:20;7.00;78.60
19214;DHT22;9741;51.020;5.304;2024-02-26T11:50:49;7.00;78.60
19214;DHT22;9741;51.020;5.304;2024-02-26T11:53:23;7.00;78.60
19214;DHT22;9741;51.020;5.304;2024-02-26T11:56:15;7.00;79.20
19214;DHT22;9741;51.020;5.304;2024-02-26T11:58:47;7.00;78.80
19214;DHT22;9741;51.020;5.304;2024-02-26T12:01:41;7.00;78.80
19214;DHT22;9741;51.020;5.304;2024-02-26T12:04:13;7.00;78.80
19214;DHT22;9741;51.020;5.304;2024-02-26T12:06:46;7.00;78.80
19214;DHT22;9741;51.020;5.304;2024-02-26T12:09:13;7.00;78.80
19214;DHT22;9741;51.020;5.304;2024-02-26T12:11:40;7.10;78.80
19214;DHT22;9741;51.020;5.304;2024-02-26T12:14:09;7.10;78.90
19214;DHT22;9741;51.020;5.304;2024-02-26T12:16:37;7.10;78.90
19214;DHT22;9741;51.020;5.304;2024-02-26T12:19:06;7.10;78.80
19214;DHT22;9741;51.020;5.304;2024-02-26T12:21:34;7.10;78.80
19214;DHT22;9741;51.020;5.304;2024-02-26T12:24:12;7.10;78.70
19214;DHT22;9741;51.020;5.304;2024-02-26T12:26:39;7.10;78.80
19214;DHT22;9741;51.020;5.304;2024-02-26T12:29:06;7.10;78.80
19214;DHT22;9741;51.020;5.304;2024-02-26T12:31:34;7.10;78.80
19214;DHT22;9741;51.020;5.304;2024-02-26T12:34:03;7.10;78.80
19214;DHT22;9741;51.020;5.304;2024-02-26T12:36:31;7.10;78.80
19214;DHT22;9741;51.020;5.304;2024-02-26T12:39:00;7.10;78.80
19214;DHT22;9741;51.020;5.304;2024-02-26T12:41:28;7.10;78.90
19214;DHT22;9741;51.020;5.304;2024-02-26T12:43:55;7.20;78.90
19214;DHT22;9741;51.020;5.304;2024-02-26T12:46:23;7.20;78.90
19214;DHT22;9741;51.020;5.304;2024-02-26T12:48:50;7.20;79.00
19214;DHT22;9741;51.020;5.304;2024-02-26T12:51:17;7.20;78.90
19214;DHT22;9741;51.020;5.304;2024-02-26T12:53:46;7.20;78.90
19214;DHT22;9741;51.020;5.304;2024-02-26T12:56:16;7.30;79.20
19214;DHT22;9741;51.020;5.304;2024-02-26T12:58:44;7.30;79.30
19214;DHT22;9741;51.020;5.304;2024-02-26T13:01:14;7.30;79.00
19214;DHT22;9741;51.020;5.304;2024-02-26T13:03:41;7.40;79.10
19214;DHT22;9741;51.020;5.304;2024-02-26T13:06:09;7.40;79.30
19214;DHT22;9741;51.020;5.304;2024-02-26T13:08:36;7.50;79.50
19214;DHT22;9741;51.020;5.304;2024-02-26T13:11:05;7.50;79.20
19214;DHT22;9741;51.020;5.304;2024-02-26T13:13:34;7.50;78.80
19214;DHT22;9741;51.020;5.304;2024-02-26T13:16:04;7.50;78.80
19214;DHT22;9741;51.020;5.304;2024-02-26T13:18:33;7.50;78.80
19214;DHT22;9741;51.020;5.304;2024-02-26T13:21:13;7.50;79.10
19214;DHT22;9741;51.020;5.304;2024-02-26T13:23:41;7.60;79.20
19214;DHT22;9741;51.020;5.304;2024-02-26T13:26:12;7.60;79.30
19214;DHT22;9741;51.020;5.304;2024-02-26T13:28:39;7.60;79.00
19214;DHT22;9741;51.020;5.304;2024-02-26T13:31:06;7.50;78.80
19214;DHT22;9741;51.020;5.304;2024-02-26T13:33:34;7.50;78.80
19214;DHT22;9741;51.020;5.304;2024-02-26T13:36:04;7.50;78.70
19214;DHT22;9741;51.020;5.304;2024-02-26T13:38:31;7.50;78.80
19214;DHT22;9741;51.020;5.304;2024-02-26T13:40:58;7.50;79.00
19214;DHT22;9741;51.020;5.304;2024-02-26T13:43:27;7.50;79.00
19214;DHT22;9741;51.020;5.304;2024-02-26T13:45:54;7.60;79.30
19214;DHT22;9741;51.020;5.304;2024-02-26T13:48:21;7.60;79.40
19214;DHT22;9741;51.020;5.304;2024-02-26T13:50:48;7.70;79.50
19214;DHT22;9741;51.020;5.304;2024-02-26T13:53:15;7.80;79.40
19214;DHT22;9741;51.020;5.304;2024-02-26T13:55:42;7.80;79.20
19214;DHT22;9741;51.020;5.304;2024-02-26T13:58:11;7.90;79.30
19214;DHT22;9741;51.020;5.304;2024-02-26T14:00:40;7.90;79.10
19214;DHT22;9741;51.020;5.304;2024-02-26T14:03:08;8.00;79.10
19214;DHT22;9741;51.020;5.304;2024-02-26T14:05:35;8.00;78.80
19214;DHT22;9741;51.020;5.304;2024-02-26T14:08:02;8.00;78.70
19214;DHT22;9741;51.020;5.304;2024-02-26T14:10:29;8.00;78.80
19214;DHT22;9741;51.020;5.304;2024-02-26T14:12:57;8.00;78.80
19214;DHT22;9741;51.020;5.304;2024-02-26T14:15:24;8.00;78.70
19214;DHT22;9741;51.020;5.304;2024-02-26T14:17:53;8.00;78.90
19214;DHT22;9741;51.020;5.304;2024-02-26T14:20:24;8.00;78.70
19214;DHT22;9741;51.020;5.304;2024-02-26T14:22:52;8.10;78.90
19214;DHT22;9741;51.020;5.304;2024-02-26T14:25:19;8.10;78.90
19214;DHT22;9741;51.020;5.304;2024-02-26T14:27:47;8.10;78.80
19214;DHT22;9741;51.020;5.304;2024-02-26T14:30:14;8.10;78.90
19214;DHT22;9741;51.020;5.304;2024-02-26T14:32:45;8.10;78.80
19214;DHT22;9741;51.020;5.304;2024-02-26T14:35:15;8.20;79.00
19214;DHT22;9741;51.020;5.304;2024-02-26T14:37:42;8.30;78.90
19214;DHT22;9741;51.020;5.304;2024-02-26T14:40:12;8.20;78.70
19214;DHT22;9741;51.020;5.304;2024-02-26T14:42:39;8.30;78.80
19214;DHT22;9741;51.020;5.304;2024-02-26T14:45:07;8.40;78.80
19214;DHT22;9741;51.020;5.304;2024-02-26T14:47:34;8.40;78.60
19214;DHT22;9741;51.020;5.304;2024-02-26T14:50:02;8.40;78.50
19214;DHT22;9741;51.020;5.304;2024-02-26T14:52:30;8.40;78.40
19214;DHT22;9741;51.020;5.304;2024-02-26T14:54:57;8.40;78.50
19214;DHT22;9741;51.020;5.304;2024-02-26T14:57:24;8.40;78.30
19214;DHT22;9741;51.020;5.304;2024-02-26T14:59:51;8.40;78.30
19214;DHT22;9741;51.020;5.304;2024-02-26T15:02:18;8.40;78.30
19214;DHT22;9741;51.020;5.304;2024-02-26T15:04:45;8.50;78.40
19214;DHT22;9741;51.020;5.304;2024-02-26T15:07:12;8.50;78.40
19214;DHT22;9741;51.020;5.304;2024-02-26T15:09:41;8.50;78.30
19214;DHT22;9741;51.020;5.304;2024-02-26T15:12:08;8.50;78.20
19214;DHT22;9741;51.020;5.304;2024-02-26T15:14:35;8.50;78.00
19214;DHT22;9741;51.020;5.304;2024-02-26T15:17:03;8.50;78.00
19214;DHT22;9741;51.020;5.304;2024-02-26T15:19:30;8.40;77.90
19214;DHT22;9741;51.020;5.304;2024-02-26T15:21:57;8.40;77.90
19214;DHT22;9741;51.020;5.304;2024-02-26T15:24:24;8.40;77.90
19214;DHT22;9741;51.020;5.304;2024-02-26T15:26:52;8.40;77.90
19214;DHT22;9741;51.020;5.304;2024-02-26T15:29:19;8.30;77.90
19214;DHT22;9741;51.020;5.304;2024-02-26T15:31:46;8.30;78.00
19214;DHT22;9741;51.020;5.304;2024-02-26T15:34:13;8.30;77.80
19214;DHT22;9741;51.020;5.304;2024-02-26T15:36:40;8.30;77.70
19214;DHT22;9741;51.020;5.304;2024-02-26T15:39:07;8.20;77.60
19214;DHT22;9741;51.020;5.304;2024-02-26T15:41:34;8.20;77.80
19214;DHT22;9741;51.020;5.304;2024-02-26T15:44:03;8.20;77.80
19214;DHT22;9741;51.020;5.304;2024-02-26T15:46:30;8.20;77.90
19214;DHT22;9741;51.020;5.304;2024-02-26T15:48:57;8.10;77.80
19214;DHT22;9741;51.020;5.304;2024-02-26T15:51:24;8.10;77.90
19214;DHT22;9741;51.020;5.304;2024-02-26T15:53:51;8.10;78.00
19214;DHT22;9741;51.020;5.304;2024-02-26T15:56:19;8.00;77.80
19214;DHT22;9741;51.020;5.304;2024-02-26T15:58:49;8.10;78.00
19214;DHT22;9741;51.020;5.304;2024-02-26T16:01:17;8.00;77.80
19214;DHT22;9741;51.020;5.304;2024-02-26T16:03:44;8.00;78.00
19214;DHT22;9741;51.020;5.304;2024-02-26T16:06:18;8.00;78.00